TimeCST,TemperatureF,Dew PointF,Humidity,Sea Level PressureIn,VisibilityMPH,Wind Direction,Wind SpeedMPH,Gust SpeedMPH,PrecipitationIn,Events,Conditions,WindDirDegrees,DateUTC
12:15 AM,23.0,8.4,54,30.22,10.0,East,10.4,16.1,N/A,,Overcast,90,2013-02-21 06:15:00
12:35 AM,23.0,8.4,54,30.22,10.0,East,8.1,-,N/A,,Overcast,90,2013-02-21 06:35:00
12:55 AM,23.0,8.6,54,30.24,10.0,East,6.9,-,N/A,,Overcast,90,2013-02-21 06:55:00
1:15 AM,23.0,8.6,54,30.24,10.0,East,6.9,-,N/A,,Overcast,100,2013-02-21 07:15:00
1:35 AM,23.0,8.4,54,30.23,10.0,ESE,6.9,-,N/A,,Overcast,110,2013-02-21 07:35:00
1:55 AM,22.8,8.4,54,30.22,10.0,East,5.8,-,N/A,,Overcast,100,2013-02-21 07:55:00
2:15 AM,22.6,8.4,55,30.18,10.0,East,8.1,-,N/A,,Overcast,80,2013-02-21 08:15:00
2:35 AM,22.6,8.6,55,30.19,10.0,East,6.9,-,N/A,,Mostly Cloudy,100,2013-02-21 08:35:00
2:55 AM,22.6,8.8,55,30.17,10.0,East,6.9,-,N/A,,Overcast,90,2013-02-21 08:55:00
3:15 AM,22.6,8.8,55,30.14,10.0,East,5.8,-,N/A,,Overcast,80,2013-02-21 09:15:00
3:35 AM,22.5,9.1,57,30.13,10.0,East,6.9,-,N/A,,Overcast,90,2013-02-21 09:35:00
3:55 AM,22.5,9.5,58,30.16,10.0,East,8.1,-,N/A,,Overcast,100,2013-02-21 09:55:00
4:15 AM,22.3,9.7,58,30.15,10.0,East,8.1,-,N/A,,Overcast,100,2013-02-21 10:15:00
4:35 AM,22.1,10.2,60,30.13,10.0,East,8.1,16.1,N/A,,Overcast,80,2013-02-21 10:35:00
4:55 AM,22.3,10.4,60,30.11,10.0,East,9.2,16.1,N/A,,Overcast,80,2013-02-21 10:55:00
5:15 AM,22.1,10.4,61,30.10,10.0,East,8.1,16.1,N/A,,Overcast,80,2013-02-21 11:15:00
5:55 AM,22.5,10.9,61,30.13,10.0,East,9.2,-,N/A,,Overcast,90,2013-02-21 11:55:00
6:15 AM,22.5,11.1,62,30.12,10.0,East,5.8,-,N/A,,Overcast,90,2013-02-21 12:15:00
6:35 AM,22.1,11.3,63,30.11,10.0,East,9.2,-,N/A,,Overcast,90,2013-02-21 12:35:00
6:55 AM,22.5,11.5,63,30.11,10.0,East,9.2,18.4,N/A,,Overcast,80,2013-02-21 12:55:00
7:15 AM,22.5,11.8,64,30.11,10.0,East,5.8,-,N/A,,Overcast,100,2013-02-21 13:15:00
7:35 AM,22.5,11.8,64,30.09,10.0,East,8.1,16.1,N/A,,Overcast,80,2013-02-21 13:35:00
7:55 AM,22.5,12.2,65,30.09,10.0,East,4.6,-,N/A,,Overcast,90,2013-02-21 13:55:00
8:15 AM,22.6,12.2,64,30.10,10.0,East,5.8,-,N/A,,Overcast,100,2013-02-21 14:15:00
8:35 AM,23.0,12.7,65,30.14,10.0,East,9.2,16.1,N/A,,Overcast,90,2013-02-21 14:35:00
8:55 AM,22.8,12.9,66,30.13,10.0,East,8.1,-,N/A,,Overcast,90,2013-02-21 14:55:00
9:15 AM,22.8,13.1,66,30.11,10.0,East,8.1,18.4,N/A,,Overcast,80,2013-02-21 15:15:00
9:35 AM,23.0,13.1,66,30.10,10.0,East,10.4,18.4,N/A,,Overcast,90,2013-02-21 15:35:00
9:55 AM,23.4,13.5,66,30.09,10.0,East,6.9,-,N/A,,Overcast,80,2013-02-21 15:55:00
10:15 AM,23.5,13.1,64,30.07,10.0,East,12.7,21.9,N/A,,Overcast,80,2013-02-21 16:15:00
10:35 AM,24.4,13.8,64,30.05,10.0,East,10.4,19.6,N/A,,Overcast,80,2013-02-21 16:35:00
10:55 AM,25.2,19.4,79,30.04,10.0,East,6.9,20.7,N/A,,Overcast,80,2013-02-21 16:55:00
11:15 AM,25.7,19.6,78,30.04,10.0,East,12.7,19.6,N/A,,Overcast,90,2013-02-21 17:15:00
11:35 AM,24.6,21.0,86,30.04,3.0,East,13.8,24.2,N/A,Snow,Light Snow,80,2013-02-21 17:35:00
11:55 AM,23.9,22.8,96,30.01,2.0,ENE,8.1,21.9,N/A,Snow,Light Snow,70,2013-02-21 17:55:00
12:15 PM,23.4,23.4,100,30.00,1.2,ENE,10.4,18.4,N/A,Snow,Light Snow,70,2013-02-21 18:15:00
12:35 PM,23.0,23.0,100,29.98,0.5,NE,8.1,19.6,N/A,Snow,Light Snow,50,2013-02-21 18:35:00
12:55 PM,23.0,23.0,100,29.98,0.8,ENE,8.1,16.1,N/A,Snow,Light Snow,60,2013-02-21 18:55:00
1:15 PM,23.0,23.0,100,29.99,0.5,ENE,3.5,-,0.01,Snow,Light Snow,60,2013-02-21 19:15:00
1:35 PM,22.6,22.6,100,29.96,0.5,NE,9.2,17.3,0.01,Snow,Snow,50,2013-02-21 19:35:00
1:55 PM,22.6,22.6,100,29.96,0.5,ENE,9.2,-,0.02,Snow,Light Snow,70,2013-02-21 19:55:00
2:15 PM,22.8,22.8,100,29.95,0.5,NE,5.8,-,0.01,Snow,Light Snow,40,2013-02-21 20:15:00
2:35 PM,23.0,23.0,100,29.94,0.5,ENE,8.1,18.4,0.01,Snow,Snow,70,2013-02-21 20:35:00
2:55 PM,23.0,23.0,100,29.94,0.5,NE,9.2,18.4,0.01,Snow,Snow,40,2013-02-21 20:55:00
3:15 PM,23.0,23.0,100,29.93,0.5,NE,8.1,17.3,0.01,Snow,Snow,50,2013-02-21 21:15:00
3:35 PM,23.0,23.0,100,29.93,0.5,NE,8.1,-,0.02,Snow,Snow,50,2013-02-21 21:35:00
3:55 PM,23.0,23.0,100,29.92,0.2,ENE,9.2,-,0.02,Snow,Snow,70,2013-02-21 21:55:00
4:15 PM,22.8,22.8,100,29.91,0.5,NE,9.2,-,0.01,Snow,Snow,50,2013-02-21 22:15:00
4:35 PM,22.5,22.5,100,29.91,0.5,NE,5.8,16.1,0.01,Snow,Snow,50,2013-02-21 22:35:00
4:55 PM,22.5,22.5,100,29.90,0.8,NE,8.1,-,0.01,Snow,Light Snow,50,2013-02-21 22:55:00
5:15 PM,22.5,22.5,100,29.89,1.0,NE,4.6,-,N/A,Snow,Light Snow,50,2013-02-21 23:15:00
5:35 PM,22.1,22.1,100,29.89,0.5,NE,9.2,-,N/A,Snow,Light Snow,50,2013-02-21 23:35:00
5:55 PM,22.1,22.1,100,29.89,0.8,NE,4.6,-,N/A,Snow,Light Snow,40,2013-02-21 23:55:00
6:15 PM,21.9,21.9,100,29.89,0.5,NE,6.9,-,N/A,Snow,Snow,40,2013-02-22 00:15:00
6:35 PM,22.1,22.1,100,29.88,1.5,NE,6.9,-,N/A,Snow,Light Snow,50,2013-02-22 00:35:00
6:55 PM,22.1,22.1,100,29.88,1.2,NE,8.1,-,N/A,Snow,Light Snow,50,2013-02-22 00:55:00
7:15 PM,22.5,22.5,100,29.88,1.5,ENE,6.9,-,0.01,Snow,Light Snow,60,2013-02-22 01:15:00
7:35 PM,22.8,22.8,100,29.88,2.0,ENE,4.6,-,0.01,Snow,Light Snow,60,2013-02-22 01:35:00
7:55 PM,22.8,22.8,100,29.87,2.0,NE,5.8,-,0.01,Snow,Light Snow,50,2013-02-22 01:55:00
8:15 PM,23.0,23.0,100,29.87,2.0,ENE,4.6,-,N/A,Snow,Light Snow,60,2013-02-22 02:15:00
8:35 PM,23.0,23.0,100,29.87,0.5,NE,3.5,-,0.01,Snow,Heavy Snow,50,2013-02-22 02:35:00
8:55 PM,23.0,23.0,100,29.86,0.8,NE,3.5,-,0.02,Snow,Snow,40,2013-02-22 02:55:00
9:15 PM,23.4,23.4,100,29.86,1.5,Calm,Calm,-,0.01,Snow,Light Snow,0,2013-02-22 03:15:00
9:35 PM,23.4,23.4,100,29.86,1.5,Calm,Calm,-,0.02,Snow,Light Snow,0,2013-02-22 03:35:00
9:55 PM,23.4,23.4,100,29.85,1.8,NNE,3.5,-,0.02,Snow,Light Snow,20,2013-02-22 03:55:00
10:15 PM,23.4,23.4,100,29.85,1.8,NNE,5.8,-,0.01,Snow,Light Snow,20,2013-02-22 04:15:00
10:35 PM,23.4,23.4,100,29.85,2.5,NNE,4.6,-,0.03,Snow,Light Snow,20,2013-02-22 04:35:00
10:55 PM,23.4,23.4,100,29.84,2.0,NE,4.6,-,0.04,Snow,Light Snow,40,2013-02-22 04:55:00
11:15 PM,23.0,23.0,100,29.84,1.8,NNE,5.8,-,0.02,Snow,Light Snow,30,2013-02-22 05:15:00
11:35 PM,22.8,22.8,100,29.84,1.5,NE,5.8,-,0.02,Snow,Light Snow,40,2013-02-22 05:35:00